Time;durP1;ratioP1;P1;durP2;ratioP2;P2;SDS_P1;SDS_P2;PMS_P1;PMS_P2;Temp;Humidity;BMP_temperature;BMP_pressure;BME280_temperature;BME280_humidity;BME280_pressure;Samples;Min_cycle;Max_cycle;Signal;HPM_P1;HPM_P2
2021/06/17 00:01:23;;;;;;;8.27;7.67;;;24.90;91.30;;;;;;5052606;28;20174;-72
2021/06/17 00:03:48;;;;;;;8.87;8.07;;;25.00;91.40;;;;;;5053042;28;20170;-71
2021/06/17 00:06:14;;;;;;;8.83;8.00;;;25.00;91.50;;;;;;5052348;28;20196;-71
2021/06/17 00:08:40;;;;;;;8.27;7.67;;;25.00;91.50;;;;;;5050688;28;20608;-71
2021/06/17 00:11:06;;;;;;;8.87;8.07;;;24.90;91.60;;;;;;5041595;28;20294;-71
2021/06/17 00:13:35;;;;;;;8.70;8.10;;;25.00;91.60;;;;;;5032679;28;20410;-71
2021/06/17 00:16:03;;;;;;;8.03;7.43;;;24.90;91.60;;;;;;5033130;28;20277;-71
2021/06/17 00:18:30;;;;;;;8.23;7.53;;;24.90;91.70;;;;;;5051012;28;20440;-72
2021/06/17 00:20:56;;;;;;;8.00;7.27;;;24.90;91.80;;;;;;5052882;28;20424;-71
2021/06/17 00:23:22;;;;;;;8.20;7.50;;;24.80;92.20;;;;;;5052275;28;20428;-71
2021/06/17 00:25:48;;;;;;;7.60;6.90;;;24.80;91.90;;;;;;5056104;28;20226;-71
2021/06/17 00:28:13;;;;;;;8.10;7.40;;;24.80;91.90;;;;;;5056133;28;20475;-72
2021/06/17 00:30:40;;;;;;;8.23;7.47;;;24.80;91.90;;;;;;5056025;28;20186;-70
2021/06/17 00:33:06;;;;;;;7.77;7.07;;;24.80;92.00;;;;;;5056524;28;20611;-71
2021/06/17 00:35:32;;;;;;;8.30;7.53;;;24.80;91.90;;;;;;5055944;28;20436;-72
2021/06/17 00:38:00;;;;;;;7.60;7.00;;;24.70;91.90;;;;;;5055941;28;20170;-72
2021/06/17 00:40:27;;;;;;;8.33;7.27;;;24.80;92.00;;;;;;5056338;28;20417;-73
2021/06/17 00:42:54;;;;;;;8.40;7.80;;;24.70;92.00;;;;;;5055858;28;20444;-72
2021/06/17 00:45:32;;;;;;;7.70;7.10;;;24.70;92.10;;;;;;5057582;28;20456;-72
2021/06/17 00:47:58;;;;;;;7.70;7.10;;;24.70;92.20;;;;;;5055788;28;20458;-72
2021/06/17 00:50:29;;;;;;;8.57;7.90;;;24.70;92.20;;;;;;5055839;28;20451;-71
2021/06/17 00:52:54;;;;;;;8.30;7.70;;;24.60;92.20;;;;;;5055961;28;20385;-71
2021/06/17 00:55:20;;;;;;;8.40;7.70;;;24.70;92.30;;;;;;5055895;28;20793;-71
2021/06/17 00:57:46;;;;;;;7.90;7.30;;;24.60;92.30;;;;;;5055772;28;20190;-73
2021/06/17 01:00:14;;;;;;;8.50;7.60;;;24.60;92.40;;;;;;5055527;28;20229;-71
2021/06/17 01:02:40;;;;;;;7.73;6.93;;;24.50;92.40;;;;;;5055226;28;20401;-73
2021/06/17 01:05:08;;;;;;;8.87;7.97;;;24.50;92.50;;;;;;5055298;28;20949;-71
2021/06/17 01:08:04;;;;;;;8.27;7.57;;;24.50;92.60;;;;;;5055253;28;20174;-73
2021/06/17 01:10:54;;;;;;;8.33;7.53;;;24.50;92.80;;;;;;5055074;28;20914;-73
2021/06/17 01:13:26;;;;;;;12.00;7.47;;;24.40;92.80;;;;;;5055311;28;20385;-71
2021/06/17 01:16:16;;;;;;;7.80;7.20;;;24.40;92.90;;;;;;5055628;28;20784;-72
2021/06/17 01:18:49;;;;;;;9.57;7.17;;;24.40;92.90;;;;;;5053518;28;20440;-73
2021/06/17 01:21:43;;;;;;;7.80;7.20;;;24.30;93.00;;;;;;5055119;28;20392;-71
2021/06/17 01:24:29;;;;;;;8.00;7.40;;;24.30;93.00;;;;;;5053781;28;20412;-71
2021/06/17 01:27:19;;;;;;;7.27;6.67;;;24.30;93.10;;;;;;5055290;28;20472;-72
2021/06/17 01:29:50;;;;;;;8.13;7.47;;;24.30;93.10;;;;;;5054866;28;20510;-71
2021/06/17 01:32:17;;;;;;;8.50;7.90;;;24.30;93.10;;;;;;5055094;28;20404;-71
2021/06/17 01:34:45;;;;;;;7.70;7.07;;;24.30;93.20;;;;;;5053854;28;20397;-71
2021/06/17 01:37:14;;;;;;;7.17;6.67;;;24.30;93.20;;;;;;5055090;28;20447;-71
2021/06/17 01:39:40;;;;;;;7.87;7.27;;;24.20;93.20;;;;;;5054593;28;20805;-71
2021/06/17 01:42:08;;;;;;;7.70;7.10;;;24.20;93.30;;;;;;5048256;28;20448;-71
2021/06/17 01:44:35;;;;;;;7.50;6.83;;;24.20;93.40;;;;;;5034909;28;20548;-71
2021/06/17 01:47:02;;;;;;;8.20;7.50;;;24.20;93.40;;;;;;5034501;28;20418;-72
2021/06/17 01:49:29;;;;;;;7.37;6.87;;;24.20;93.40;;;;;;5034398;28;20461;-72
2021/06/17 01:51:57;;;;;;;8.10;7.40;;;24.20;93.50;;;;;;5049031;28;20490;-70
2021/06/17 01:54:26;;;;;;;7.43;6.83;;;24.20;93.40;;;;;;5054583;28;20559;-71
2021/06/17 01:56:54;;;;;;;7.67;6.93;;;24.20;93.50;;;;;;5055137;28;20421;-71
2021/06/17 01:59:23;;;;;;;7.63;7.03;;;24.20;93.50;;;;;;5053883;28;20527;-72
2021/06/17 02:01:52;;;;;;;7.90;7.23;;;24.20;93.40;;;;;;5054027;28;20458;-72
2021/06/17 02:04:21;;;;;;;7.67;6.90;;;24.20;93.50;;;;;;5054628;28;20427;-71
2021/06/17 02:06:47;;;;;;;7.80;7.10;;;24.10;93.50;;;;;;5055702;28;20433;-70
2021/06/17 02:09:13;;;;;;;7.13;6.43;;;24.10;93.60;;;;;;5058411;28;20983;-70
2021/06/17 02:11:39;;;;;;;7.90;7.20;;;24.00;93.70;;;;;;5056487;28;20166;-71
2021/06/17 02:14:09;;;;;;;7.73;7.03;;;24.00;93.80;;;;;;5056335;28;20512;-70
2021/06/17 02:16:35;;;;;;;7.80;7.17;;;24.00;93.90;;;;;;5054830;28;20198;-70
2021/06/17 02:19:02;;;;;;;7.90;7.30;;;24.00;93.90;;;;;;5055082;28;20421;-70
2021/06/17 02:21:31;;;;;;;7.33;6.73;;;23.90;93.90;;;;;;5054528;28;20416;-74
2021/06/17 02:23:58;;;;;;;8.07;7.37;;;23.90;94.00;;;;;;5055437;28;20413;-71
2021/06/17 02:26:26;;;;;;;7.70;7.00;;;23.90;94.00;;;;;;5053363;28;20427;-71
2021/06/17 02:28:53;;;;;;;8.60;7.80;;;23.90;94.10;;;;;;5053062;28;20386;-71
2021/06/17 02:31:26;;;;;;;7.63;6.97;;;23.90;94.10;;;;;;5053611;28;20401;-71
2021/06/17 02:33:51;;;;;;;7.57;6.77;;;23.90;94.20;;;;;;5053001;28;20760;-71
2021/06/17 02:36:22;;;;;;;7.40;6.80;;;23.90;94.10;;;;;;5051918;28;20421;-70
2021/06/17 02:38:50;;;;;;;7.57;6.97;;;23.90;94.20;;;;;;5053522;28;20167;-70
2021/06/17 02:41:19;;;;;;;8.00;7.30;;;23.90;94.20;;;;;;5053456;28;20396;-71
2021/06/17 02:43:47;;;;;;;7.63;6.83;;;23.80;94.10;;;;;;5053522;28;20423;-71
2021/06/17 02:46:15;;;;;;;7.10;6.60;;;23.90;94.20;;;;;;5052972;28;20437;-71
2021/06/17 02:48:41;;;;;;;6.97;6.47;;;23.80;94.10;;;;;;5045793;28;20427;-71
2021/06/17 02:51:06;;;;;;;7.57;6.87;;;23.90;94.20;;;;;;5033733;28;20962;-70
2021/06/17 02:53:32;;;;;;;8.10;7.30;;;23.80;94.20;;;;;;5046765;28;20477;-71
2021/06/17 02:55:58;;;;;;;9.07;7.83;;;23.80;94.30;;;;;;5053585;28;20182;-70
2021/06/17 02:58:45;;;;;;;7.27;6.53;;;23.80;94.20;;;;;;5053264;28;20281;-71
2021/06/17 03:01:18;;;;;;;7.43;6.77;;;23.80;94.20;;;;;;5051986;28;20482;-70
2021/06/17 03:03:52;;;;;;;7.43;6.87;;;23.80;94.10;;;;;;5053200;28;20405;-71
2021/06/17 03:06:35;;;;;;;7.67;6.97;;;23.90;94.10;;;;;;5052983;28;20944;-71
2021/06/17 03:09:13;;;;;;;7.07;6.47;;;23.90;94.20;;;;;;5053291;28;20758;-71
2021/06/17 03:11:42;;;;;;;7.33;6.83;;;23.80;94.20;;;;;;5053126;28;20389;-71
2021/06/17 03:14:13;;;;;;;8.13;7.20;;;23.80;94.10;;;;;;5052763;28;20774;-71
2021/06/17 03:16:42;;;;;;;7.47;6.87;;;23.80;94.10;;;;;;5053007;28;20511;-71
2021/06/17 03:19:10;;;;;;;7.10;6.50;;;23.90;94.10;;;;;;5053134;28;20436;-71
2021/06/17 03:21:40;;;;;;;6.73;6.23;;;23.80;94.10;;;;;;5053904;28;20735;-71
2021/06/17 03:24:08;;;;;;;6.93;6.33;;;23.80;94.10;;;;;;5062118;28;20412;-71
2021/06/17 03:26:38;;;;;;;7.40;6.80;;;23.80;94.10;;;;;;5053080;28;20440;-72
2021/06/17 03:29:05;;;;;;;6.53;6.03;;;23.80;94.20;;;;;;5053394;28;20408;-71
2021/06/17 03:31:31;;;;;;;6.80;6.30;;;23.80;94.30;;;;;;5053360;28;20515;-71
2021/06/17 03:33:59;;;;;;;7.43;6.50;;;23.80;94.20;;;;;;5052601;28;20417;-70
2021/06/17 03:36:25;;;;;;;7.47;6.40;;;23.80;94.30;;;;;;5053298;28;20785;-71
2021/06/17 03:38:52;;;;;;;7.13;6.53;;;23.70;94.20;;;;;;5053281;28;20455;-71
2021/06/17 03:41:19;;;;;;;6.63;6.07;;;23.80;94.20;;;;;;5051741;28;20792;-70
2021/06/17 03:43:47;;;;;;;7.00;6.40;;;23.70;94.10;;;;;;5050747;28;20441;-71
2021/06/17 03:46:14;;;;;;;8.00;6.13;;;23.80;94.10;;;;;;5041203;28;20441;-71
2021/06/17 03:48:44;;;;;;;6.43;5.93;;;23.80;94.10;;;;;;5032884;28;20422;-71
2021/06/17 03:51:12;;;;;;;7.23;6.63;;;23.80;94.10;;;;;;5033276;28;20465;-71
2021/06/17 03:53:39;;;;;;;7.50;6.90;;;23.80;94.10;;;;;;5032733;28;20412;-71
2021/06/17 03:56:06;;;;;;;6.80;6.30;;;23.80;94.10;;;;;;5036106;28;20455;-71
2021/06/17 03:58:32;;;;;;;7.07;5.80;;;23.80;94.10;;;;;;5055716;28;20443;-71
2021/06/17 04:00:59;;;;;;;6.47;5.90;;;23.70;94.00;;;;;;5058492;28;20830;-72
2021/06/17 04:03:26;;;;;;;6.77;6.17;;;23.80;94.10;;;;;;5059657;28;20877;-72
2021/06/17 04:05:51;;;;;;;6.63;6.13;;;23.80;94.10;;;;;;5056462;28;20506;-71
2021/06/17 04:08:21;;;;;;;6.80;6.20;;;23.70;94.00;;;;;;5055598;28;20431;-71
2021/06/17 04:10:47;;;;;;;6.87;6.17;;;23.80;94.00;;;;;;5057730;28;20444;-70
2021/06/17 04:13:14;;;;;;;7.47;6.80;;;23.80;94.00;;;;;;5048117;28;20424;-70
2021/06/17 04:15:41;;;;;;;9.10;6.17;;;23.80;94.00;;;;;;5046021;28;20452;-71
2021/06/17 04:18:08;;;;;;;8.70;6.43;;;23.90;94.10;;;;;;5050201;28;20514;-71
2021/06/17 04:20:40;;;;;;;8.97;6.73;;;23.90;94.00;;;;;;5050053;28;20482;-70
2021/06/17 04:23:07;;;;;;;6.93;6.23;;;23.90;93.80;;;;;;5047044;28;20424;-71
2021/06/17 04:25:34;;;;;;;7.53;6.83;;;23.90;93.70;;;;;;5049810;28;20513;-72
2021/06/17 04:28:02;;;;;;;8.70;6.30;;;23.90;94.00;;;;;;5045309;28;20552;-73
2021/06/17 04:30:31;;;;;;;6.90;6.30;;;23.90;93.90;;;;;;5048339;28;20815;-73
2021/06/17 04:33:00;;;;;;;6.53;5.93;;;23.90;93.80;;;;;;5034669;28;20460;-74
2021/06/17 04:35:27;;;;;;;9.13;6.47;;;23.90;93.80;;;;;;5041334;28;20445;-72
2021/06/17 04:37:53;;;;;;;6.60;6.10;;;23.90;93.90;;;;;;5043422;28;20433;-72
2021/06/17 04:40:21;;;;;;;6.80;6.20;;;23.90;93.80;;;;;;5045648;28;20448;-73
2021/06/17 04:42:54;;;;;;;6.70;6.00;;;23.90;93.80;;;;;;5048856;28;20464;-73
2021/06/17 04:45:22;;;;;;;6.20;5.60;;;23.90;93.80;;;;;;5032769;28;20446;-73
2021/06/17 04:47:49;;;;;;;7.50;5.80;;;24.00;93.80;;;;;;5032678;28;20425;-71
2021/06/17 04:50:16;;;;;;;6.47;5.83;;;24.00;93.80;;;;;;5042522;28;20861;-74
2021/06/17 04:53:13;;;;;;;6.63;6.10;;;24.00;93.80;;;;;;5050150;28;20551;-74
2021/06/17 04:55:43;;;;;;;6.33;5.70;;;24.00;93.80;;;;;;5044172;28;20938;-73
2021/06/17 04:58:09;;;;;;;6.77;6.00;;;24.00;93.80;;;;;;5052279;28;20429;-74
2021/06/17 05:00:35;;;;;;;7.30;6.57;;;24.00;93.90;;;;;;5054231;28;20492;-72
2021/06/17 05:03:00;;;;;;;6.40;5.80;;;24.00;93.90;;;;;;5052954;28;20162;-73
2021/06/17 05:05:26;;;;;;;6.77;6.17;;;24.10;93.90;;;;;;5053201;28;20451;-74
2021/06/17 05:10:48;;;;;;;6.60;6.00;;;24.10;93.90;;;;;;5053882;28;20231;-74
2021/06/17 05:10:52;;;;;;;5.97;5.47;;;24.10;93.90;;;;;;5053883;28;20740;-73
2021/06/17 05:13:19;;;;;;;6.07;5.47;;;24.10;93.90;;;;;;5055112;28;20452;-73
2021/06/17 05:15:45;;;;;;;12.57;6.57;;;24.20;93.90;;;;;;5052981;28;20439;-75
2021/06/17 05:18:10;;;;;;;8.93;6.43;;;24.20;93.90;;;;;;5048470;28;20448;-72
2021/06/17 05:20:36;;;;;;;5.90;5.50;;;24.20;93.80;;;;;;5035522;28;20185;-73
2021/06/17 05:23:02;;;;;;;6.70;6.10;;;24.30;93.70;;;;;;5052495;28;20577;-73
2021/06/17 05:25:28;;;;;;;6.53;5.90;;;24.30;93.60;;;;;;5055431;28;20190;-75
2021/06/17 05:27:53;;;;;;;8.90;6.30;;;24.30;93.70;;;;;;5052256;28;20228;-74
2021/06/17 05:30:19;;;;;;;6.37;5.87;;;24.30;93.60;;;;;;5054070;28;20232;-73
2021/06/17 05:32:45;;;;;;;6.43;5.93;;;24.40;93.70;;;;;;5054516;28;20855;-74
2021/06/17 05:35:11;;;;;;;7.63;6.17;;;24.40;93.60;;;;;;5054563;28;20535;-74
2021/06/17 05:37:37;;;;;;;6.77;6.00;;;24.40;93.50;;;;;;5054388;28;20206;-72
2021/06/17 05:40:03;;;;;;;5.90;5.40;;;24.50;93.40;;;;;;5054553;28;20476;-74
2021/06/17 05:42:30;;;;;;;7.00;5.80;;;24.50;93.30;;;;;;5054888;28;20186;-73
2021/06/17 05:44:56;;;;;;;7.97;6.27;;;24.60;93.20;;;;;;5055375;28;20460;-73
2021/06/17 05:47:21;;;;;;;7.30;6.60;;;24.60;93.20;;;;;;5055018;28;20443;-73
2021/06/17 05:49:47;;;;;;;6.57;6.00;;;24.70;93.30;;;;;;5054930;28;20571;-72
2021/06/17 05:52:13;;;;;;;6.80;6.20;;;24.70;93.30;;;;;;5054991;28;20190;-72
2021/06/17 05:54:38;;;;;;;7.13;6.43;;;24.70;93.20;;;;;;5052773;28;20170;-73
2021/06/17 05:57:04;;;;;;;6.50;5.90;;;24.80;93.20;;;;;;5054372;28;20174;-74
2021/06/17 05:59:30;;;;;;;6.13;5.70;;;24.80;93.10;;;;;;5053233;28;20189;-74
2021/06/17 06:01:55;;;;;;;7.00;6.07;;;24.90;93.10;;;;;;5054072;28;20718;-73
2021/06/17 06:04:21;;;;;;;7.90;6.00;;;24.90;93.00;;;;;;5054171;28;20539;-73
2021/06/17 06:06:46;;;;;;;7.27;6.53;;;25.00;93.00;;;;;;5054411;28;20785;-74
2021/06/17 06:09:13;;;;;;;6.03;5.63;;;25.00;92.90;;;;;;5054562;28;20174;-74
2021/06/17 06:11:39;;;;;;;6.40;5.83;;;25.00;92.80;;;;;;5053779;28;20228;-74
2021/06/17 06:14:05;;;;;;;11.47;6.90;;;25.10;92.80;;;;;;5052691;28;20490;-73
2021/06/17 06:16:31;;;;;;;6.50;5.93;;;25.10;92.80;;;;;;5054417;28;20432;-73
2021/06/17 06:18:56;;;;;;;8.43;5.90;;;25.20;92.70;;;;;;5053820;28;20674;-72
2021/06/17 06:21:22;;;;;;;6.80;6.20;;;25.30;92.70;;;;;;5052650;28;20175;-72
2021/06/17 06:23:48;;;;;;;7.10;6.23;;;25.30;92.70;;;;;;5053775;28;20248;-73
2021/06/17 06:26:13;;;;;;;7.33;5.90;;;25.30;92.50;;;;;;5053526;28;20198;-73
2021/06/17 06:28:39;;;;;;;6.20;5.70;;;25.40;92.60;;;;;;5053632;28;20174;-73
2021/06/17 06:31:04;;;;;;;8.75;6.45;;;25.40;92.40;;;;;;5053573;28;20466;-72
2021/06/17 06:33:30;;;;;;;6.87;5.83;;;25.50;92.50;;;;;;5053113;28;20248;-73
2021/06/17 06:35:55;;;;;;;6.47;5.93;;;25.60;92.40;;;;;;5053965;28;20197;-74
2021/06/17 06:38:21;;;;;;;6.43;5.87;;;25.70;92.40;;;;;;5054191;28;20174;-73
2021/06/17 06:40:47;;;;;;;8.20;5.70;;;25.70;92.20;;;;;;5053541;28;20174;-73
2021/06/17 06:43:14;;;;;;;7.00;6.40;;;25.80;92.20;;;;;;5053288;28;20697;-73
2021/06/17 06:45:40;;;;;;;7.20;6.50;;;25.90;92.20;;;;;;5053522;28;20568;-73
2021/06/17 06:48:06;;;;;;;8.80;6.30;;;26.00;92.10;;;;;;5053807;28;20928;-75
2021/06/17 06:50:31;;;;;;;6.83;6.33;;;26.00;92.10;;;;;;5053775;28;20453;-74
2021/06/17 06:52:57;;;;;;;6.23;5.47;;;26.10;92.10;;;;;;5053752;28;20918;-73
2021/06/17 06:55:23;;;;;;;7.30;6.70;;;26.10;91.90;;;;;;5052880;28;20639;-74
2021/06/17 06:57:49;;;;;;;6.83;6.10;;;26.20;91.80;;;;;;5053781;28;20185;-74
2021/06/17 07:00:16;;;;;;;8.27;7.57;;;26.30;91.80;;;;;;5053126;28;20394;-73
2021/06/17 07:02:42;;;;;;;8.03;7.20;;;26.30;91.80;;;;;;5051707;28;20198;-72
2021/06/17 07:05:09;;;;;;;6.23;5.60;;;26.40;91.80;;;;;;5053327;28;20433;-73
2021/06/17 07:07:35;;;;;;;7.28;6.57;;;26.50;91.60;;;;;;5052633;28;20414;-72
2021/06/17 07:10:00;;;;;;;6.40;5.80;;;26.60;91.30;;;;;;5053015;28;20639;-73
2021/06/17 07:12:26;;;;;;;9.33;6.67;;;26.70;91.20;;;;;;5053231;28;20603;-72
2021/06/17 07:14:52;;;;;;;6.60;6.10;;;26.70;91.20;;;;;;5053332;28;20281;-74
2021/06/17 07:17:17;;;;;;;6.90;6.20;;;26.80;91.30;;;;;;5053703;28;20169;-74
2021/06/17 07:19:43;;;;;;;7.07;6.40;;;26.90;91.00;;;;;;5052903;28;20185;-73
2021/06/17 07:22:09;;;;;;;7.33;6.57;;;27.00;90.90;;;;;;5053264;28;20201;-74
2021/06/17 07:24:36;;;;;;;7.20;5.90;;;27.10;90.60;;;;;;5052580;28;20623;-73
2021/06/17 07:27:03;;;;;;;6.53;6.03;;;27.20;90.10;;;;;;5052563;28;21201;-74
2021/06/17 07:29:29;;;;;;;6.60;6.00;;;27.20;90.00;;;;;;5052985;28;20531;-72
2021/06/17 07:31:54;;;;;;;6.70;5.97;;;27.20;90.00;;;;;;5053594;28;20498;-73
2021/06/17 07:34:21;;;;;;;7.77;5.97;;;27.30;90.10;;;;;;5055626;28;20922;-74
2021/06/17 07:36:48;;;;;;;8.23;5.90;;;27.30;90.10;;;;;;5056948;28;20210;-73
2021/06/17 07:39:15;;;;;;;6.47;5.97;;;27.40;90.00;;;;;;5057351;28;20466;-73
2021/06/17 07:41:41;;;;;;;6.23;5.60;;;27.50;90.00;;;;;;5055627;28;20424;-73
2021/06/17 07:44:07;;;;;;;6.80;6.20;;;27.50;90.00;;;;;;5056421;28;20408;-73
2021/06/17 07:46:32;;;;;;;6.60;5.90;;;27.70;89.90;;;;;;5056423;28;20243;-74
2021/06/17 07:48:59;;;;;;;9.20;6.60;;;27.80;88.50;;;;;;5056981;28;20436;-74
2021/06/17 07:51:28;;;;;;;6.93;6.23;;;27.80;88.10;;;;;;5056301;28;20574;-74
2021/06/17 07:53:59;;;;;;;7.03;6.53;;;27.80;88.40;;;;;;5056437;28;20838;-72
2021/06/17 07:56:29;;;;;;;7.17;6.57;;;27.90;87.80;;;;;;5056456;28;20440;-73
2021/06/17 07:58:55;;;;;;;7.33;6.60;;;28.00;87.70;;;;;;5056425;28;20437;-72
2021/06/17 08:01:20;;;;;;;6.70;6.10;;;28.10;87.00;;;;;;5056513;28;20432;-73
2021/06/17 08:03:46;;;;;;;7.63;6.93;;;28.20;86.60;;;;;;5055461;28;20427;-73
2021/06/17 08:06:12;;;;;;;6.23;5.70;;;28.20;86.50;;;;;;5056343;28;20198;-73
2021/06/17 08:08:38;;;;;;;6.17;5.67;;;28.20;86.50;;;;;;5056344;28;20926;-72
2021/06/17 08:11:03;;;;;;;6.83;6.03;;;28.40;86.50;;;;;;5056308;28;20194;-73
2021/06/17 08:13:29;;;;;;;6.60;5.90;;;28.50;85.90;;;;;;5056879;28;20540;-74
2021/06/17 08:15:54;;;;;;;8.90;6.23;;;28.50;85.60;;;;;;5056569;28;20186;-73
2021/06/17 08:18:20;;;;;;;6.20;5.70;;;28.50;85.00;;;;;;5056499;28;20244;-73
2021/06/17 08:20:45;;;;;;;6.00;5.57;;;28.60;84.90;;;;;;5057012;28;20567;-73
2021/06/17 08:23:11;;;;;;;10.10;6.53;;;28.70;84.90;;;;;;5057078;28;20190;-74
2021/06/17 08:25:37;;;;;;;6.50;6.00;;;28.80;84.80;;;;;;5056432;28;20201;-73
2021/06/17 08:28:06;;;;;;;6.80;6.10;;;28.90;84.10;;;;;;5057218;28;20178;-73
2021/06/17 08:30:33;;;;;;;6.27;5.77;;;29.00;83.50;;;;;;5058197;28;20814;-74
2021/06/17 08:32:59;;;;;;;6.43;5.83;;;29.00;82.80;;;;;;5057478;28;20906;-73
2021/06/17 08:35:25;;;;;;;6.37;5.83;;;29.10;82.00;;;;;;5056899;28;20420;-74
2021/06/17 08:37:50;;;;;;;7.90;6.17;;;29.20;82.00;;;;;;5058201;28;20627;-72
2021/06/17 08:40:16;;;;;;;5.77;5.37;;;29.30;80.90;;;;;;5056142;28;20201;-73
2021/06/17 08:42:43;;;;;;;6.83;6.23;;;29.40;81.60;;;;;;5054191;28;20660;-73
2021/06/17 08:45:10;;;;;;;6.97;6.37;;;29.50;80.30;;;;;;5054650;28;20431;-73
2021/06/17 08:47:37;;;;;;;13.80;7.10;;;29.50;80.00;;;;;;5055770;28;20435;-73
2021/06/17 08:50:09;;;;;;;8.90;6.70;;;29.60;80.80;;;;;;5055627;28;20452;-72
2021/06/17 08:52:39;;;;;;;5.90;5.50;;;29.70;80.50;;;;;;5057387;28;20432;-74
2021/06/17 08:55:14;;;;;;;7.57;6.30;;;29.70;80.00;;;;;;5056260;28;20436;-74
2021/06/17 08:57:40;;;;;;;7.30;6.03;;;29.80;79.80;;;;;;5056884;28;20434;-73
2021/06/17 09:00:27;;;;;;;5.93;5.43;;;29.90;79.80;;;;;;5057443;28;20281;-73
2021/06/17 09:02:59;;;;;;;8.37;5.83;;;30.00;77.80;;;;;;5058213;28;20177;-73
2021/06/17 09:05:25;;;;;;;8.80;6.30;;;30.10;78.70;;;;;;5057416;28;20421;-74
2021/06/17 09:07:52;;;;;;;6.77;6.10;;;30.20;78.00;;;;;;5055789;28;20409;-74
2021/06/17 09:10:18;;;;;;;5.50;5.10;;;30.30;76.30;;;;;;5055810;28;20859;-74
2021/06/17 09:12:46;;;;;;;9.47;5.43;;;30.30;75.00;;;;;;5055711;28;20845;-74
2021/06/17 09:15:12;;;;;;;5.93;4.60;;;30.30;75.00;;;;;;5055763;28;20444;-73
2021/06/17 09:17:38;;;;;;;6.37;5.40;;;30.30;74.20;;;;;;5055334;28;20412;-72
2021/06/17 09:20:04;;;;;;;5.33;4.83;;;30.30;72.90;;;;;;5056582;28;20412;-73
2021/06/17 09:22:31;;;;;;;5.93;5.43;;;30.30;72.50;;;;;;5056113;28;20405;-72
2021/06/17 09:24:57;;;;;;;6.10;5.63;;;30.30;73.50;;;;;;5055696;28;20524;-72
2021/06/17 09:27:31;;;;;;;6.33;5.73;;;30.30;73.90;;;;;;5057408;28;20413;-72
2021/06/17 09:30:09;;;;;;;5.70;5.20;;;30.30;74.10;;;;;;5056318;28;20941;-74
2021/06/17 09:32:35;;;;;;;5.37;4.97;;;30.30;74.00;;;;;;5055349;28;20389;-73
2021/06/17 09:35:00;;;;;;;5.60;5.10;;;30.40;73.30;;;;;;5054349;28;20404;-73
2021/06/17 09:37:29;;;;;;;5.77;5.17;;;30.40;72.70;;;;;;5055572;28;20224;-74
2021/06/17 09:39:56;;;;;;;6.27;5.17;;;30.50;72.80;;;;;;5055130;28;20667;-74
2021/06/17 09:42:29;;;;;;;6.13;4.93;;;30.50;72.60;;;;;;5055139;28;20552;-74
2021/06/17 09:44:55;;;;;;;6.93;5.57;;;30.50;72.00;;;;;;5055734;28;20918;-75
2021/06/17 09:47:25;;;;;;;5.70;5.30;;;30.50;71.80;;;;;;5055314;28;20423;-75
2021/06/17 09:49:51;;;;;;;6.40;5.80;;;30.50;71.60;;;;;;5055276;28;20178;-75
2021/06/17 09:52:20;;;;;;;4.97;4.67;;;30.40;71.90;;;;;;5059175;28;20447;-73
2021/06/17 09:54:49;;;;;;;5.57;5.17;;;30.30;72.10;;;;;;5055982;28;20908;-73
2021/06/17 09:57:18;;;;;;;5.20;4.70;;;30.40;72.10;;;;;;5055004;28;20428;-74
2021/06/17 09:59:51;;;;;;;5.67;5.17;;;30.50;72.00;;;;;;5053888;28;20874;-73
2021/06/17 10:02:22;;;;;;;5.90;5.20;;;30.60;71.30;;;;;;5054268;28;20917;-73
2021/06/17 10:04:48;;;;;;;5.80;5.30;;;30.70;70.60;;;;;;5054134;28;20421;-74
2021/06/17 10:07:16;;;;;;;5.77;5.37;;;30.70;70.40;;;;;;5063729;28;20535;-75
2021/06/17 10:09:42;;;;;;;5.83;5.43;;;30.80;70.50;;;;;;5057494;28;20553;-75
2021/06/17 10:12:08;;;;;;;5.93;4.97;;;30.70;69.20;;;;;;5054131;28;20464;-75
2021/06/17 10:14:33;;;;;;;5.40;5.00;;;30.70;69.50;;;;;;5054411;28;20636;-74
2021/06/17 10:16:59;;;;;;;6.00;5.40;;;30.80;70.00;;;;;;5054713;28;20549;-74
2021/06/17 10:19:25;;;;;;;6.23;5.70;;;30.80;70.10;;;;;;5054392;28;20197;-74
2021/06/17 10:21:52;;;;;;;6.10;5.60;;;30.90;70.80;;;;;;5054130;28;20606;-74
2021/06/17 10:24:23;;;;;;;6.60;6.00;;;31.00;70.40;;;;;;5054447;28;20781;-74
2021/06/17 10:26:55;;;;;;;5.47;5.03;;;31.00;69.80;;;;;;5054672;28;20781;-73
2021/06/17 10:29:26;;;;;;;5.67;5.27;;;31.00;69.10;;;;;;5054428;28;20409;-73
2021/06/17 10:31:53;;;;;;;7.57;6.30;;;31.10;69.00;;;;;;5054524;28;20939;-73
2021/06/17 10:34:25;;;;;;;5.70;5.20;;;31.00;69.20;;;;;;5052558;28;20527;-72
2021/06/17 10:37:15;;;;;;;5.50;5.10;;;31.00;69.10;;;;;;5054636;28;21013;-73
2021/06/17 10:39:49;;;;;;;5.90;5.47;;;31.00;69.10;;;;;;5054510;28;20862;-73
2021/06/17 10:42:37;;;;;;;6.67;6.07;;;31.10;69.10;;;;;;5053845;28;20786;-74
2021/06/17 10:45:02;;;;;;;6.00;5.50;;;31.20;69.20;;;;;;5034414;28;20501;-73
2021/06/17 10:47:53;;;;;;;5.90;5.37;;;31.20;69.30;;;;;;5033888;28;20929;-73
2021/06/17 10:50:42;;;;;;;5.43;5.03;;;31.20;68.70;;;;;;5033504;28;20205;-74
2021/06/17 10:53:19;;;;;;;5.90;5.30;;;31.20;68.10;;;;;;5037310;28;20467;-73
2021/06/17 10:56:25;;;;;;;5.97;5.38;;;31.20;68.40;;;;;;5053323;28;20419;-73
2021/06/17 10:58:54;;;;;;;7.77;5.70;;;31.20;67.70;;;;;;5051322;28;20190;-75
2021/06/17 11:01:42;;;;;;;6.03;5.53;;;31.10;67.80;;;;;;5051768;28;20470;-73
2021/06/17 11:04:07;;;;;;;6.50;6.00;;;31.20;68.20;;;;;;5051391;28;20430;-74
2021/06/17 11:06:48;;;;;;;5.90;5.40;;;31.30;68.70;;;;;;5051658;28;20479;-74
2021/06/17 11:09:35;;;;;;;6.30;5.80;;;31.30;68.50;;;;;;5050842;28;20666;-73
2021/06/17 11:12:03;;;;;;;5.17;4.77;;;31.40;67.90;;;;;;5051175;28;20431;-73
2021/06/17 11:14:38;;;;;;;5.80;4.90;;;31.40;67.60;;;;;;5050614;28;20503;-73
2021/06/17 11:17:34;;;;;;;5.50;5.00;;;31.40;66.70;;;;;;5051767;28;20506;-74
2021/06/17 11:20:15;;;;;;;10.50;5.40;;;31.40;65.90;;;;;;5051347;28;20415;-73
2021/06/17 11:22:58;;;;;;;5.20;4.70;;;31.40;66.20;;;;;;5051827;28;20401;-72
2021/06/17 11:25:25;;;;;;;6.17;5.07;;;31.40;66.30;;;;;;5050875;28;20436;-72
2021/06/17 11:28:14;;;;;;;5.67;5.17;;;31.40;67.40;;;;;;5051381;28;21039;-73
2021/06/17 11:30:42;;;;;;;5.17;4.77;;;31.40;67.20;;;;;;5052248;28;20463;-72
2021/06/17 11:33:17;;;;;;;5.13;4.73;;;31.40;66.20;;;;;;5039039;28;20416;-72
2021/06/17 11:35:45;;;;;;;5.70;4.93;;;31.40;66.80;;;;;;5036640;28;20482;-72
2021/06/17 11:38:11;;;;;;;5.07;4.57;;;31.40;66.50;;;;;;5053248;28;20416;-73
2021/06/17 11:40:37;;;;;;;7.30;4.67;;;31.40;64.90;;;;;;5053084;28;20912;-74
2021/06/17 11:43:03;;;;;;;5.43;5.03;;;31.40;64.60;;;;;;5052830;28;20427;-73
2021/06/17 11:45:33;;;;;;;4.90;4.50;;;31.50;63.90;;;;;;5052153;28;20444;-75
2021/06/17 11:48:03;;;;;;;4.90;4.50;;;31.40;64.40;;;;;;5053250;28;20269;-73
2021/06/17 11:50:29;;;;;;;5.07;4.77;;;31.40;64.00;;;;;;5053943;28;20494;-73
2021/06/17 11:52:56;;;;;;;4.93;4.60;;;31.40;63.40;;;;;;5053565;28;20429;-73
2021/06/17 11:55:22;;;;;;;6.20;5.37;;;31.40;64.90;;;;;;5053581;28;20918;-72
2021/06/17 11:57:47;;;;;;;5.73;4.50;;;31.40;64.20;;;;;;5052942;28;20435;-73
2021/06/17 12:00:28;;;;;;;5.27;4.87;;;31.40;63.60;;;;;;5053251;28;20405;-73
2021/06/17 12:02:54;;;;;;;5.60;5.10;;;31.40;64.50;;;;;;5052652;28;20162;-73
2021/06/17 12:05:23;;;;;;;7.00;4.83;;;31.40;65.50;;;;;;5052800;28;20420;-73
2021/06/17 12:07:49;;;;;;;5.03;4.63;;;31.40;65.30;;;;;;5052428;28;20202;-73
2021/06/17 12:10:22;;;;;;;5.20;4.80;;;31.50;64.50;;;;;;5052848;28;20479;-73
2021/06/17 12:12:54;;;;;;;7.10;4.70;;;31.40;64.00;;;;;;5052574;28;20400;-73
2021/06/17 12:15:22;;;;;;;6.50;5.40;;;31.40;62.20;;;;;;5052710;28;20428;-73
2021/06/17 12:17:51;;;;;;;5.20;4.70;;;31.40;62.70;;;;;;5052490;28;20444;-72
2021/06/17 12:20:39;;;;;;;5.83;5.20;;;31.40;62.60;;;;;;5056514;28;20882;-72
2021/06/17 12:23:22;;;;;;;5.77;5.13;;;31.40;63.70;;;;;;5057469;28;20404;-73
2021/06/17 12:26:00;;;;;;;5.03;4.63;;;31.40;64.20;;;;;;5056393;28;20511;-73
2021/06/17 12:28:27;;;;;;;6.37;5.17;;;31.50;62.90;;;;;;5056285;28;20491;-73
2021/06/17 12:30:53;;;;;;;5.13;4.60;;;31.50;62.50;;;;;;5055695;28;20999;-73
2021/06/17 12:33:24;;;;;;;6.77;6.00;;;31.50;62.60;;;;;;5055650;28;20462;-73
2021/06/17 12:36:01;;;;;;;5.30;4.90;;;31.50;62.90;;;;;;5056035;28;20976;-72
2021/06/17 12:38:31;;;;;;;5.73;5.33;;;31.50;63.50;;;;;;5055994;28;20512;-72
2021/06/17 12:41:18;;;;;;;5.60;5.10;;;31.40;63.10;;;;;;5055379;28;20841;-72
2021/06/17 12:43:45;;;;;;;4.90;4.60;;;31.50;63.50;;;;;;5055922;28;20208;-72
2021/06/17 12:46:11;;;;;;;5.53;5.07;;;31.60;64.50;;;;;;5055854;28;20424;-73
2021/06/17 12:54:24;;;;;;;5.83;5.30;;;31.70;63.90;;;;;;5055107;28;20415;-73
2021/06/17 12:56:56;;;;;;;6.13;5.63;;;31.70;64.20;;;;;;5055460;28;20898;-74
2021/06/17 12:59:41;;;;;;;6.47;5.87;;;31.80;64.20;;;;;;5055333;28;20464;-74
2021/06/17 13:02:11;;;;;;;7.03;6.33;;;31.90;63.80;;;;;;5056299;28;20381;-75